Terminal Aerodrome Forecast
Issued by NWS

Home | Current Version | Previous Version | Text Only | Print | Product List | Glossary Off
Versions: 1 2 3 4 5 6 7 8 9 10 11 12 13 14 15 16 17

000
FTUS43 KABR 190500 AAA
TAFMBG
TAF AMD
KMBG 190502Z 1905/1924 17010KT P6SM VCTS BKN100CB
     FM191200 12008KT P6SM BKN015
     FM191500 21008KT P6SM SCT020
     FM191800 28009KT P6SM BKN250=

USA.gov is the U.S. government's official web portal to all federal, state and local government web resources and services.